sensor_id;sensor_type;location;lat;lon;timestamp;temperature;humidity
913;DHT22;443;51.448;7.028;2023-08-01T00:00:11;19.00;90.50
913;DHT22;443;51.448;7.028;2023-08-01T00:02:38;18.90;90.30
913;DHT22;443;51.448;7.028;2023-08-01T00:05:08;18.90;90.50
913;DHT22;443;51.448;7.028;2023-08-01T00:07:34;18.90;90.50
913;DHT22;443;51.448;7.028;2023-08-01T00:10:03;18.90;90.20
913;DHT22;443;51.448;7.028;2023-08-01T00:12:30;18.90;90.20
913;DHT22;443;51.448;7.028;2023-08-01T00:14:57;18.90;90.50
913;DHT22;443;51.448;7.028;2023-08-01T00:17:24;18.90;90.40
913;DHT22;443;51.448;7.028;2023-08-01T00:19:50;18.90;90.60
913;DHT22;443;51.448;7.028;2023-08-01T00:22:17;18.90;90.40
913;DHT22;443;51.448;7.028;2023-08-01T00:24:44;18.90;90.40
913;DHT22;443;51.448;7.028;2023-08-01T00:27:14;18.90;90.40
913;DHT22;443;51.448;7.028;2023-08-01T00:29:40;18.90;90.40
913;DHT22;443;51.448;7.028;2023-08-01T00:32:07;19.00;90.30
913;DHT22;443;51.448;7.028;2023-08-01T00:34:35;18.90;90.40
913;DHT22;443;51.448;7.028;2023-08-01T00:37:02;18.90;90.40
913;DHT22;443;51.448;7.028;2023-08-01T00:39:29;18.90;90.40
913;DHT22;443;51.448;7.028;2023-08-01T00:41:56;18.90;90.40
913;DHT22;443;51.448;7.028;2023-08-01T00:44:24;18.90;90.30
913;DHT22;443;51.448;7.028;2023-08-01T00:46:51;18.90;90.60
913;DHT22;443;51.448;7.028;2023-08-01T00:49:18;18.90;90.40
913;DHT22;443;51.448;7.028;2023-08-01T00:51:45;18.90;90.80
913;DHT22;443;51.448;7.028;2023-08-01T00:54:11;18.80;90.60
913;DHT22;443;51.448;7.028;2023-08-01T00:56:38;18.80;90.50
913;DHT22;443;51.448;7.028;2023-08-01T00:59:05;18.90;90.60
913;DHT22;443;51.448;7.028;2023-08-01T01:01:33;18.80;90.60
913;DHT22;443;51.448;7.028;2023-08-01T01:04:00;18.90;90.60
913;DHT22;443;51.448;7.028;2023-08-01T01:06:32;18.80;90.70
913;DHT22;443;51.448;7.028;2023-08-01T01:08:59;18.80;90.80
913;DHT22;443;51.448;7.028;2023-08-01T01:11:26;18.80;90.80
913;DHT22;443;51.448;7.028;2023-08-01T01:13:53;18.70;90.80
913;DHT22;443;51.448;7.028;2023-08-01T01:16:20;18.80;90.70
913;DHT22;443;51.448;7.028;2023-08-01T01:18:48;18.80;90.80
913;DHT22;443;51.448;7.028;2023-08-01T01:21:16;18.80;90.90
913;DHT22;443;51.448;7.028;2023-08-01T01:23:43;18.80;90.80
913;DHT22;443;51.448;7.028;2023-08-01T01:26:10;18.80;90.90
913;DHT22;443;51.448;7.028;2023-08-01T01:28:38;18.80;90.90
913;DHT22;443;51.448;7.028;2023-08-01T01:31:06;18.80;91.00
913;DHT22;443;51.448;7.028;2023-08-01T01:33:33;18.80;90.90
913;DHT22;443;51.448;7.028;2023-08-01T01:36:00;18.70;90.80
913;DHT22;443;51.448;7.028;2023-08-01T01:38:29;18.70;90.80
913;DHT22;443;51.448;7.028;2023-08-01T01:40:56;18.70;90.60
913;DHT22;443;51.448;7.028;2023-08-01T01:43:22;18.80;90.60
913;DHT22;443;51.448;7.028;2023-08-01T01:45:49;18.80;90.40
913;DHT22;443;51.448;7.028;2023-08-01T01:48:16;18.80;90.50
913;DHT22;443;51.448;7.028;2023-08-01T01:50:43;18.80;90.70
913;DHT22;443;51.448;7.028;2023-08-01T01:53:09;18.80;91.10
913;DHT22;443;51.448;7.028;2023-08-01T01:55:37;18.80;90.70
913;DHT22;443;51.448;7.028;2023-08-01T01:58:05;18.90;90.70
913;DHT22;443;51.448;7.028;2023-08-01T02:00:32;18.90;90.60
913;DHT22;443;51.448;7.028;2023-08-01T02:02:59;18.90;90.60
913;DHT22;443;51.448;7.028;2023-08-01T02:05:28;18.90;90.50
913;DHT22;443;51.448;7.028;2023-08-01T02:07:55;18.90;90.50
913;DHT22;443;51.448;7.028;2023-08-01T02:10:21;18.80;90.40
913;DHT22;443;51.448;7.028;2023-08-01T02:12:49;18.80;90.40
913;DHT22;443;51.448;7.028;2023-08-01T02:15:16;18.80;90.30
913;DHT22;443;51.448;7.028;2023-08-01T02:17:43;18.80;90.20
913;DHT22;443;51.448;7.028;2023-08-01T02:20:10;18.80;90.20
913;DHT22;443;51.448;7.028;2023-08-01T02:22:37;18.70;90.10
913;DHT22;443;51.448;7.028;2023-08-01T02:25:05;18.70;90.10
913;DHT22;443;51.448;7.028;2023-08-01T02:27:31;18.70;90.30
913;DHT22;443;51.448;7.028;2023-08-01T02:30:00;18.70;90.30
913;DHT22;443;51.448;7.028;2023-08-01T02:32:26;18.70;90.30
913;DHT22;443;51.448;7.028;2023-08-01T02:34:53;18.70;90.50
913;DHT22;443;51.448;7.028;2023-08-01T02:37:20;18.70;90.50
913;DHT22;443;51.448;7.028;2023-08-01T02:39:47;18.70;90.50
913;DHT22;443;51.448;7.028;2023-08-01T02:42:13;18.60;90.50
913;DHT22;443;51.448;7.028;2023-08-01T02:44:40;18.70;90.60
913;DHT22;443;51.448;7.028;2023-08-01T02:47:08;18.70;90.60
913;DHT22;443;51.448;7.028;2023-08-01T02:49:35;18.60;90.60
913;DHT22;443;51.448;7.028;2023-08-01T02:52:02;18.60;90.70
913;DHT22;443;51.448;7.028;2023-08-01T02:54:28;18.60;90.80
913;DHT22;443;51.448;7.028;2023-08-01T02:56:55;18.70;90.70
913;DHT22;443;51.448;7.028;2023-08-01T02:59:22;18.60;90.70
913;DHT22;443;51.448;7.028;2023-08-01T03:01:49;18.60;90.70
913;DHT22;443;51.448;7.028;2023-08-01T03:04:17;18.70;90.80
913;DHT22;443;51.448;7.028;2023-08-01T03:06:44;18.60;90.80
913;DHT22;443;51.448;7.028;2023-08-01T03:09:11;18.60;90.70
913;DHT22;443;51.448;7.028;2023-08-01T03:11:37;18.70;90.70
913;DHT22;443;51.448;7.028;2023-08-01T03:14:04;18.70;90.80
913;DHT22;443;51.448;7.028;2023-08-01T03:16:31;18.70;90.80
913;DHT22;443;51.448;7.028;2023-08-01T03:18:58;18.70;90.80
913;DHT22;443;51.448;7.028;2023-08-01T03:21:31;18.70;90.70
913;DHT22;443;51.448;7.028;2023-08-01T03:23:58;18.70;90.70
913;DHT22;443;51.448;7.028;2023-08-01T03:26:25;18.70;90.70
913;DHT22;443;51.448;7.028;2023-08-01T03:28:53;18.60;90.70
913;DHT22;443;51.448;7.028;2023-08-01T03:31:20;18.60;90.80
913;DHT22;443;51.448;7.028;2023-08-01T03:33:47;18.70;90.90
913;DHT22;443;51.448;7.028;2023-08-01T03:36:14;18.70;90.80
913;DHT22;443;51.448;7.028;2023-08-01T03:38:42;18.70;90.80
913;DHT22;443;51.448;7.028;2023-08-01T03:41:10;18.70;90.70
913;DHT22;443;51.448;7.028;2023-08-01T03:43:37;18.70;91.00
913;DHT22;443;51.448;7.028;2023-08-01T03:46:04;18.60;90.60
913;DHT22;443;51.448;7.028;2023-08-01T03:48:31;18.60;90.60
913;DHT22;443;51.448;7.028;2023-08-01T03:50:57;18.60;90.90
913;DHT22;443;51.448;7.028;2023-08-01T03:53:25;18.60;90.60
913;DHT22;443;51.448;7.028;2023-08-01T03:55:54;18.60;90.60
913;DHT22;443;51.448;7.028;2023-08-01T03:58:20;18.60;90.50
913;DHT22;443;51.448;7.028;2023-08-01T04:00:47;18.60;90.60
913;DHT22;443;51.448;7.028;2023-08-01T04:03:14;18.60;90.40
913;DHT22;443;51.448;7.028;2023-08-01T04:05:41;18.60;90.40
913;DHT22;443;51.448;7.028;2023-08-01T04:08:08;18.60;90.40
913;DHT22;443;51.448;7.028;2023-08-01T04:10:35;18.60;90.40
913;DHT22;443;51.448;7.028;2023-08-01T04:13:03;18.60;90.40
913;DHT22;443;51.448;7.028;2023-08-01T04:15:29;18.60;90.30
913;DHT22;443;51.448;7.028;2023-08-01T04:17:56;18.50;90.30
913;DHT22;443;51.448;7.028;2023-08-01T04:20:23;18.50;90.20
913;DHT22;443;51.448;7.028;2023-08-01T04:22:50;18.50;90.30
913;DHT22;443;51.448;7.028;2023-08-01T04:25:17;18.50;90.20
913;DHT22;443;51.448;7.028;2023-08-01T04:27:44;18.50;90.20
913;DHT22;443;51.448;7.028;2023-08-01T04:30:12;18.50;90.40
913;DHT22;443;51.448;7.028;2023-08-01T04:32:39;18.50;90.30
913;DHT22;443;51.448;7.028;2023-08-01T04:35:06;18.50;90.30
913;DHT22;443;51.448;7.028;2023-08-01T04:37:33;18.50;90.40
913;DHT22;443;51.448;7.028;2023-08-01T04:39:59;18.40;90.40
913;DHT22;443;51.448;7.028;2023-08-01T04:42:26;18.40;90.30
913;DHT22;443;51.448;7.028;2023-08-01T04:44:54;18.50;90.20
913;DHT22;443;51.448;7.028;2023-08-01T04:47:22;18.40;90.30
913;DHT22;443;51.448;7.028;2023-08-01T04:49:49;18.40;90.30
913;DHT22;443;51.448;7.028;2023-08-01T04:52:15;18.40;90.30
913;DHT22;443;51.448;7.028;2023-08-01T04:54:42;18.40;90.40
913;DHT22;443;51.448;7.028;2023-08-01T04:57:09;18.50;90.40
913;DHT22;443;51.448;7.028;2023-08-01T04:59:36;18.50;90.40
913;DHT22;443;51.448;7.028;2023-08-01T05:02:03;18.50;90.30
913;DHT22;443;51.448;7.028;2023-08-01T05:04:31;18.40;90.30
913;DHT22;443;51.448;7.028;2023-08-01T05:06:57;18.40;90.30
913;DHT22;443;51.448;7.028;2023-08-01T05:09:24;18.50;90.30
913;DHT22;443;51.448;7.028;2023-08-01T05:11:51;18.50;90.30
913;DHT22;443;51.448;7.028;2023-08-01T05:14:18;18.40;90.40
913;DHT22;443;51.448;7.028;2023-08-01T05:16:45;18.40;90.40
913;DHT22;443;51.448;7.028;2023-08-01T05:19:12;18.50;90.60
913;DHT22;443;51.448;7.028;2023-08-01T05:21:40;18.50;90.30
913;DHT22;443;51.448;7.028;2023-08-01T05:24:06;18.50;90.30
913;DHT22;443;51.448;7.028;2023-08-01T05:26:33;18.50;90.70
913;DHT22;443;51.448;7.028;2023-08-01T05:29:00;18.40;90.30
913;DHT22;443;51.448;7.028;2023-08-01T05:31:26;18.50;90.40
913;DHT22;443;51.448;7.028;2023-08-01T05:33:53;18.50;90.30
913;DHT22;443;51.448;7.028;2023-08-01T05:36:20;18.50;90.30
913;DHT22;443;51.448;7.028;2023-08-01T05:38:48;18.40;90.30
913;DHT22;443;51.448;7.028;2023-08-01T05:41:15;18.40;90.30
913;DHT22;443;51.448;7.028;2023-08-01T05:43:41;18.40;90.30
913;DHT22;443;51.448;7.028;2023-08-01T05:46:08;18.40;90.30
913;DHT22;443;51.448;7.028;2023-08-01T05:48:35;18.40;90.30
913;DHT22;443;51.448;7.028;2023-08-01T05:51:02;18.40;90.40
913;DHT22;443;51.448;7.028;2023-08-01T05:53:28;18.40;90.40
913;DHT22;443;51.448;7.028;2023-08-01T05:55:57;18.50;90.40
913;DHT22;443;51.448;7.028;2023-08-01T05:58:24;18.40;90.40
913;DHT22;443;51.448;7.028;2023-08-01T06:00:50;18.40;90.40
913;DHT22;443;51.448;7.028;2023-08-01T06:03:17;18.40;90.30
913;DHT22;443;51.448;7.028;2023-08-01T06:05:44;18.40;90.30
913;DHT22;443;51.448;7.028;2023-08-01T06:08:10;18.40;90.30
913;DHT22;443;51.448;7.028;2023-08-01T06:10:38;18.40;90.30
913;DHT22;443;51.448;7.028;2023-08-01T06:13:07;18.40;90.30
913;DHT22;443;51.448;7.028;2023-08-01T06:15:34;18.40;90.20
913;DHT22;443;51.448;7.028;2023-08-01T06:18:01;18.40;90.30
913;DHT22;443;51.448;7.028;2023-08-01T06:20:28;18.40;90.30
913;DHT22;443;51.448;7.028;2023-08-01T06:22:55;18.50;90.20
913;DHT22;443;51.448;7.028;2023-08-01T06:25:22;18.40;90.20
913;DHT22;443;51.448;7.028;2023-08-01T06:27:48;18.40;90.20
913;DHT22;443;51.448;7.028;2023-08-01T06:30:17;18.40;90.20
913;DHT22;443;51.448;7.028;2023-08-01T06:32:43;18.40;90.20
913;DHT22;443;51.448;7.028;2023-08-01T06:35:10;18.40;90.20
913;DHT22;443;51.448;7.028;2023-08-01T06:37:37;18.40;90.40
913;DHT22;443;51.448;7.028;2023-08-01T06:40:04;18.50;90.50
913;DHT22;443;51.448;7.028;2023-08-01T06:42:31;18.40;90.50
913;DHT22;443;51.448;7.028;2023-08-01T06:44:58;18.50;90.50
913;DHT22;443;51.448;7.028;2023-08-01T06:47:26;18.50;90.50
913;DHT22;443;51.448;7.028;2023-08-01T06:49:53;18.50;90.50
913;DHT22;443;51.448;7.028;2023-08-01T06:52:20;18.50;90.50
913;DHT22;443;51.448;7.028;2023-08-01T06:54:46;18.50;90.50
913;DHT22;443;51.448;7.028;2023-08-01T06:57:13;18.50;90.50
913;DHT22;443;51.448;7.028;2023-08-01T06:59:40;18.50;90.50
913;DHT22;443;51.448;7.028;2023-08-01T07:02:07;18.50;90.40
913;DHT22;443;51.448;7.028;2023-08-01T07:04:35;18.50;90.40
913;DHT22;443;51.448;7.028;2023-08-01T07:07:03;18.50;90.40
913;DHT22;443;51.448;7.028;2023-08-01T07:09:30;18.50;90.50
913;DHT22;443;51.448;7.028;2023-08-01T07:11:57;18.50;90.40
913;DHT22;443;51.448;7.028;2023-08-01T07:14:23;18.50;90.30
913;DHT22;443;51.448;7.028;2023-08-01T07:16:50;18.50;90.40
913;DHT22;443;51.448;7.028;2023-08-01T07:19:17;18.50;90.50
913;DHT22;443;51.448;7.028;2023-08-01T07:21:45;18.50;90.30
913;DHT22;443;51.448;7.028;2023-08-01T07:24:13;18.50;90.30
913;DHT22;443;51.448;7.028;2023-08-01T07:26:40;18.50;90.30
913;DHT22;443;51.448;7.028;2023-08-01T07:29:07;18.50;90.30
913;DHT22;443;51.448;7.028;2023-08-01T07:31:36;18.50;90.20
913;DHT22;443;51.448;7.028;2023-08-01T07:34:03;18.50;90.20
913;DHT22;443;51.448;7.028;2023-08-01T07:36:30;18.50;90.20
913;DHT22;443;51.448;7.028;2023-08-01T07:38:58;18.50;90.10
913;DHT22;443;51.448;7.028;2023-08-01T07:41:25;18.60;90.20
913;DHT22;443;51.448;7.028;2023-08-01T07:43:51;18.60;90.10
913;DHT22;443;51.448;7.028;2023-08-01T07:46:18;18.50;90.10
913;DHT22;443;51.448;7.028;2023-08-01T07:48:45;18.60;90.20
913;DHT22;443;51.448;7.028;2023-08-01T07:51:12;18.50;90.10
913;DHT22;443;51.448;7.028;2023-08-01T07:53:38;18.60;90.10
913;DHT22;443;51.448;7.028;2023-08-01T07:56:06;18.60;90.10
913;DHT22;443;51.448;7.028;2023-08-01T07:58:34;18.60;90.10
913;DHT22;443;51.448;7.028;2023-08-01T08:01:03;18.60;90.20
913;DHT22;443;51.448;7.028;2023-08-01T08:03:29;18.60;90.10
913;DHT22;443;51.448;7.028;2023-08-01T08:05:56;18.50;90.10
913;DHT22;443;51.448;7.028;2023-08-01T08:08:23;18.60;90.20
913;DHT22;443;51.448;7.028;2023-08-01T08:10:50;18.60;90.10
913;DHT22;443;51.448;7.028;2023-08-01T08:13:18;18.60;90.20
913;DHT22;443;51.448;7.028;2023-08-01T08:15:46;18.60;90.20
913;DHT22;443;51.448;7.028;2023-08-01T08:18:12;18.60;90.20
913;DHT22;443;51.448;7.028;2023-08-01T08:20:44;18.60;90.10
913;DHT22;443;51.448;7.028;2023-08-01T08:23:11;18.70;90.10
913;DHT22;443;51.448;7.028;2023-08-01T08:25:39;18.70;90.10
913;DHT22;443;51.448;7.028;2023-08-01T08:28:06;18.70;90.00
913;DHT22;443;51.448;7.028;2023-08-01T08:30:35;18.70;90.00
913;DHT22;443;51.448;7.028;2023-08-01T08:33:03;18.70;89.80
913;DHT22;443;51.448;7.028;2023-08-01T08:35:32;18.70;89.80
913;DHT22;443;51.448;7.028;2023-08-01T08:38:01;18.70;89.90
913;DHT22;443;51.448;7.028;2023-08-01T08:40:28;18.70;90.00
913;DHT22;443;51.448;7.028;2023-08-01T08:42:56;18.70;89.80
913;DHT22;443;51.448;7.028;2023-08-01T08:45:25;18.70;89.60
913;DHT22;443;51.448;7.028;2023-08-01T08:47:55;18.70;89.70
913;DHT22;443;51.448;7.028;2023-08-01T08:50:28;18.70;89.50
913;DHT22;443;51.448;7.028;2023-08-01T08:52:56;18.70;89.80
913;DHT22;443;51.448;7.028;2023-08-01T08:55:23;18.70;89.90
913;DHT22;443;51.448;7.028;2023-08-01T08:57:52;18.80;90.00
913;DHT22;443;51.448;7.028;2023-08-01T09:00:20;18.80;89.70
913;DHT22;443;51.448;7.028;2023-08-01T09:02:47;18.80;89.90
913;DHT22;443;51.448;7.028;2023-08-01T09:05:15;18.80;89.70
913;DHT22;443;51.448;7.028;2023-08-01T09:07:43;18.80;89.10
913;DHT22;443;51.448;7.028;2023-08-01T09:10:12;18.80;89.40
913;DHT22;443;51.448;7.028;2023-08-01T09:12:39;18.90;89.40
913;DHT22;443;51.448;7.028;2023-08-01T09:15:07;18.90;89.10
913;DHT22;443;51.448;7.028;2023-08-01T09:17:34;18.90;89.20
913;DHT22;443;51.448;7.028;2023-08-01T09:20:04;18.90;88.80
913;DHT22;443;51.448;7.028;2023-08-01T09:22:43;18.90;88.70
913;DHT22;443;51.448;7.028;2023-08-01T09:25:09;18.90;88.20
913;DHT22;443;51.448;7.028;2023-08-01T09:27:36;18.90;88.60
913;DHT22;443;51.448;7.028;2023-08-01T09:30:08;18.90;88.30
913;DHT22;443;51.448;7.028;2023-08-01T09:32:36;18.90;88.50
913;DHT22;443;51.448;7.028;2023-08-01T09:35:04;18.90;88.70
913;DHT22;443;51.448;7.028;2023-08-01T09:37:39;18.90;88.60
913;DHT22;443;51.448;7.028;2023-08-01T09:40:08;18.90;88.30
913;DHT22;443;51.448;7.028;2023-08-01T09:42:39;19.00;88.50
913;DHT22;443;51.448;7.028;2023-08-01T09:45:12;19.00;88.20
913;DHT22;443;51.448;7.028;2023-08-01T09:47:39;19.00;88.40
913;DHT22;443;51.448;7.028;2023-08-01T09:50:06;19.00;88.50
913;DHT22;443;51.448;7.028;2023-08-01T09:52:33;19.00;88.50
913;DHT22;443;51.448;7.028;2023-08-01T09:55:00;19.00;88.30
913;DHT22;443;51.448;7.028;2023-08-01T09:57:30;19.00;87.80
913;DHT22;443;51.448;7.028;2023-08-01T09:59:58;19.00;87.60
913;DHT22;443;51.448;7.028;2023-08-01T10:02:26;19.00;87.50
913;DHT22;443;51.448;7.028;2023-08-01T10:04:57;19.00;87.10
913;DHT22;443;51.448;7.028;2023-08-01T10:07:28;19.00;87.00
913;DHT22;443;51.448;7.028;2023-08-01T10:09:58;19.00;87.50
913;DHT22;443;51.448;7.028;2023-08-01T10:12:25;19.00;88.10
913;DHT22;443;51.448;7.028;2023-08-01T10:14:54;19.00;88.60
913;DHT22;443;51.448;7.028;2023-08-01T10:17:21;19.00;88.40
913;DHT22;443;51.448;7.028;2023-08-01T10:19:50;19.00;88.40
913;DHT22;443;51.448;7.028;2023-08-01T10:22:17;19.00;88.40
913;DHT22;443;51.448;7.028;2023-08-01T10:24:46;19.00;88.00
913;DHT22;443;51.448;7.028;2023-08-01T10:27:14;19.00;87.20
913;DHT22;443;51.448;7.028;2023-08-01T10:29:41;19.00;87.70
913;DHT22;443;51.448;7.028;2023-08-01T10:32:10;19.00;87.60
913;DHT22;443;51.448;7.028;2023-08-01T10:34:37;19.10;87.90
913;DHT22;443;51.448;7.028;2023-08-01T10:37:04;19.10;88.20
913;DHT22;443;51.448;7.028;2023-08-01T10:39:31;19.10;88.10
913;DHT22;443;51.448;7.028;2023-08-01T10:41:59;19.10;88.10
913;DHT22;443;51.448;7.028;2023-08-01T10:44:26;19.10;87.90
913;DHT22;443;51.448;7.028;2023-08-01T10:46:55;19.20;87.70
913;DHT22;443;51.448;7.028;2023-08-01T10:49:35;19.10;87.30
913;DHT22;443;51.448;7.028;2023-08-01T10:52:02;19.10;85.90
913;DHT22;443;51.448;7.028;2023-08-01T10:54:29;19.10;86.20
913;DHT22;443;51.448;7.028;2023-08-01T10:56:57;19.10;86.70
913;DHT22;443;51.448;7.028;2023-08-01T10:59:25;19.10;87.50
913;DHT22;443;51.448;7.028;2023-08-01T11:01:53;19.10;88.50
913;DHT22;443;51.448;7.028;2023-08-01T11:04:21;19.00;89.30
913;DHT22;443;51.448;7.028;2023-08-01T11:06:51;19.00;88.70
913;DHT22;443;51.448;7.028;2023-08-01T11:09:19;19.00;88.80
913;DHT22;443;51.448;7.028;2023-08-01T11:11:49;19.00;89.50
913;DHT22;443;51.448;7.028;2023-08-01T11:14:16;19.00;88.80
913;DHT22;443;51.448;7.028;2023-08-01T11:16:43;19.00;88.80
913;DHT22;443;51.448;7.028;2023-08-01T11:19:22;18.90;88.80
913;DHT22;443;51.448;7.028;2023-08-01T11:21:50;18.90;89.00
913;DHT22;443;51.448;7.028;2023-08-01T11:24:18;18.90;89.10
913;DHT22;443;51.448;7.028;2023-08-01T11:26:46;18.90;89.10
913;DHT22;443;51.448;7.028;2023-08-01T11:29:14;18.90;89.00
913;DHT22;443;51.448;7.028;2023-08-01T11:31:41;18.90;89.00
913;DHT22;443;51.448;7.028;2023-08-01T11:34:18;18.90;89.30
913;DHT22;443;51.448;7.028;2023-08-01T11:36:45;18.90;89.40
913;DHT22;443;51.448;7.028;2023-08-01T11:39:14;18.90;89.30
913;DHT22;443;51.448;7.028;2023-08-01T11:41:42;18.90;89.30
913;DHT22;443;51.448;7.028;2023-08-01T11:44:09;19.00;89.00
913;DHT22;443;51.448;7.028;2023-08-01T11:46:37;19.00;89.00
913;DHT22;443;51.448;7.028;2023-08-01T11:49:06;19.00;89.20
913;DHT22;443;51.448;7.028;2023-08-01T11:51:39;19.00;89.00
913;DHT22;443;51.448;7.028;2023-08-01T11:54:06;19.00;89.00
913;DHT22;443;51.448;7.028;2023-08-01T11:56:36;19.00;88.90
913;DHT22;443;51.448;7.028;2023-08-01T11:59:08;19.00;88.90
913;DHT22;443;51.448;7.028;2023-08-01T12:01:38;19.00;88.90
913;DHT22;443;51.448;7.028;2023-08-01T12:04:05;19.00;89.00
913;DHT22;443;51.448;7.028;2023-08-01T12:06:33;19.00;89.10
913;DHT22;443;51.448;7.028;2023-08-01T12:09:06;19.00;89.20
913;DHT22;443;51.448;7.028;2023-08-01T12:11:33;19.00;88.90
913;DHT22;443;51.448;7.028;2023-08-01T12:14:03;19.00;88.80
913;DHT22;443;51.448;7.028;2023-08-01T12:16:30;19.00;88.90
913;DHT22;443;51.448;7.028;2023-08-01T12:18:57;19.00;89.00
913;DHT22;443;51.448;7.028;2023-08-01T12:21:24;19.00;88.60
913;DHT22;443;51.448;7.028;2023-08-01T12:23:51;18.90;88.70
913;DHT22;443;51.448;7.028;2023-08-01T12:26:17;19.00;89.10
913;DHT22;443;51.448;7.028;2023-08-01T12:28:44;19.00;89.10
913;DHT22;443;51.448;7.028;2023-08-01T12:31:16;19.00;88.90
913;DHT22;443;51.448;7.028;2023-08-01T12:33:44;19.00;89.00
913;DHT22;443;51.448;7.028;2023-08-01T12:36:11;19.00;89.20
913;DHT22;443;51.448;7.028;2023-08-01T12:38:37;18.90;89.00
913;DHT22;443;51.448;7.028;2023-08-01T12:41:03;18.90;89.10
913;DHT22;443;51.448;7.028;2023-08-01T12:43:30;18.90;89.00
913;DHT22;443;51.448;7.028;2023-08-01T12:45:57;18.90;89.10
913;DHT22;443;51.448;7.028;2023-08-01T12:48:25;19.00;89.20
913;DHT22;443;51.448;7.028;2023-08-01T12:50:52;19.00;89.10
913;DHT22;443;51.448;7.028;2023-08-01T12:53:20;19.00;88.90
913;DHT22;443;51.448;7.028;2023-08-01T12:55:48;19.00;88.70
913;DHT22;443;51.448;7.028;2023-08-01T12:58:15;19.00;88.50
913;DHT22;443;51.448;7.028;2023-08-01T13:00:43;19.00;88.30
913;DHT22;443;51.448;7.028;2023-08-01T13:03:10;19.00;88.60
913;DHT22;443;51.448;7.028;2023-08-01T13:05:39;19.00;88.60
913;DHT22;443;51.448;7.028;2023-08-01T13:08:06;19.10;88.70
913;DHT22;443;51.448;7.028;2023-08-01T13:10:35;19.10;88.40
913;DHT22;443;51.448;7.028;2023-08-01T13:13:02;19.10;88.50
913;DHT22;443;51.448;7.028;2023-08-01T13:15:29;19.10;88.20
913;DHT22;443;51.448;7.028;2023-08-01T13:17:56;19.10;87.40
913;DHT22;443;51.448;7.028;2023-08-01T13:20:23;19.10;87.60
913;DHT22;443;51.448;7.028;2023-08-01T13:22:51;19.10;88.20
913;DHT22;443;51.448;7.028;2023-08-01T13:25:19;19.10;87.00
913;DHT22;443;51.448;7.028;2023-08-01T13:27:45;19.10;86.90
913;DHT22;443;51.448;7.028;2023-08-01T13:30:12;19.10;87.40
913;DHT22;443;51.448;7.028;2023-08-01T13:32:43;19.10;87.20
913;DHT22;443;51.448;7.028;2023-08-01T13:35:10;19.10;86.80
913;DHT22;443;51.448;7.028;2023-08-01T13:37:36;19.10;87.30
913;DHT22;443;51.448;7.028;2023-08-01T13:40:06;19.10;86.60
913;DHT22;443;51.448;7.028;2023-08-01T13:42:33;19.10;86.80
913;DHT22;443;51.448;7.028;2023-08-01T13:45:00;19.10;87.60
913;DHT22;443;51.448;7.028;2023-08-01T13:47:27;19.10;87.70
913;DHT22;443;51.448;7.028;2023-08-01T13:49:53;19.10;87.70
913;DHT22;443;51.448;7.028;2023-08-01T13:52:20;19.10;88.00
913;DHT22;443;51.448;7.028;2023-08-01T13:54:47;19.10;88.00
913;DHT22;443;51.448;7.028;2023-08-01T13:57:15;19.10;87.90
913;DHT22;443;51.448;7.028;2023-08-01T13:59:42;19.10;87.90
913;DHT22;443;51.448;7.028;2023-08-01T14:02:08;19.20;87.60
913;DHT22;443;51.448;7.028;2023-08-01T14:04:35;19.30;87.40
913;DHT22;443;51.448;7.028;2023-08-01T14:07:02;19.40;87.00
913;DHT22;443;51.448;7.028;2023-08-01T14:09:29;19.50;86.60
913;DHT22;443;51.448;7.028;2023-08-01T14:11:57;19.60;86.10
913;DHT22;443;51.448;7.028;2023-08-01T14:14:27;19.70;85.70
913;DHT22;443;51.448;7.028;2023-08-01T14:16:53;19.80;85.30
913;DHT22;443;51.448;7.028;2023-08-01T14:19:21;19.90;85.40
913;DHT22;443;51.448;7.028;2023-08-01T14:21:48;19.90;84.80
913;DHT22;443;51.448;7.028;2023-08-01T14:24:15;20.00;84.70
913;DHT22;443;51.448;7.028;2023-08-01T14:26:42;20.00;84.50
913;DHT22;443;51.448;7.028;2023-08-01T14:29:08;20.00;84.10
913;DHT22;443;51.448;7.028;2023-08-01T14:31:36;19.90;84.40
913;DHT22;443;51.448;7.028;2023-08-01T14:34:03;19.80;84.70
913;DHT22;443;51.448;7.028;2023-08-01T14:36:30;19.80;85.00
913;DHT22;443;51.448;7.028;2023-08-01T14:38:56;19.90;84.50
913;DHT22;443;51.448;7.028;2023-08-01T14:41:23;20.00;84.30
913;DHT22;443;51.448;7.028;2023-08-01T14:43:50;20.20;83.50
913;DHT22;443;51.448;7.028;2023-08-01T14:46:17;20.30;83.10
913;DHT22;443;51.448;7.028;2023-08-01T14:48:45;20.30;83.20
913;DHT22;443;51.448;7.028;2023-08-01T14:51:12;20.20;83.30
913;DHT22;443;51.448;7.028;2023-08-01T14:53:38;20.10;83.50
913;DHT22;443;51.448;7.028;2023-08-01T14:56:05;20.00;83.40
913;DHT22;443;51.448;7.028;2023-08-01T14:58:33;19.90;84.30
913;DHT22;443;51.448;7.028;2023-08-01T15:01:04;19.80;84.60
913;DHT22;443;51.448;7.028;2023-08-01T15:03:31;19.80;84.40
913;DHT22;443;51.448;7.028;2023-08-01T15:06:06;19.80;84.30
913;DHT22;443;51.448;7.028;2023-08-01T15:08:33;19.80;84.50
913;DHT22;443;51.448;7.028;2023-08-01T15:11:04;19.80;84.30
913;DHT22;443;51.448;7.028;2023-08-01T15:13:31;19.80;84.40
913;DHT22;443;51.448;7.028;2023-08-01T15:15:58;19.70;84.60
913;DHT22;443;51.448;7.028;2023-08-01T15:18:25;19.60;85.10
913;DHT22;443;51.448;7.028;2023-08-01T15:20:52;19.70;85.20
913;DHT22;443;51.448;7.028;2023-08-01T15:23:20;19.70;84.60
913;DHT22;443;51.448;7.028;2023-08-01T15:25:54;19.70;84.80
913;DHT22;443;51.448;7.028;2023-08-01T15:28:21;19.70;83.90
913;DHT22;443;51.448;7.028;2023-08-01T15:30:48;19.70;84.10
913;DHT22;443;51.448;7.028;2023-08-01T15:33:15;19.80;83.20
913;DHT22;443;51.448;7.028;2023-08-01T15:35:42;19.80;83.40
913;DHT22;443;51.448;7.028;2023-08-01T15:38:09;19.70;84.70
913;DHT22;443;51.448;7.028;2023-08-01T15:40:37;19.70;83.50
913;DHT22;443;51.448;7.028;2023-08-01T15:43:04;19.70;83.60
913;DHT22;443;51.448;7.028;2023-08-01T15:45:31;19.70;83.90
913;DHT22;443;51.448;7.028;2023-08-01T15:47:57;19.70;84.40
913;DHT22;443;51.448;7.028;2023-08-01T15:50:24;19.60;83.90
913;DHT22;443;51.448;7.028;2023-08-01T15:52:51;19.60;83.90
913;DHT22;443;51.448;7.028;2023-08-01T15:55:18;19.70;83.20
913;DHT22;443;51.448;7.028;2023-08-01T15:57:46;19.60;84.80
913;DHT22;443;51.448;7.028;2023-08-01T16:00:13;19.60;84.60
913;DHT22;443;51.448;7.028;2023-08-01T16:02:40;19.60;85.10
913;DHT22;443;51.448;7.028;2023-08-01T16:05:07;19.80;84.70
913;DHT22;443;51.448;7.028;2023-08-01T16:07:35;19.80;84.40
913;DHT22;443;51.448;7.028;2023-08-01T16:10:02;19.80;84.50
913;DHT22;443;51.448;7.028;2023-08-01T16:12:29;19.70;83.80
913;DHT22;443;51.448;7.028;2023-08-01T16:14:57;19.80;83.20
913;DHT22;443;51.448;7.028;2023-08-01T16:17:23;19.80;82.80
913;DHT22;443;51.448;7.028;2023-08-01T16:19:50;19.80;82.50
913;DHT22;443;51.448;7.028;2023-08-01T16:22:17;19.90;81.30
913;DHT22;443;51.448;7.028;2023-08-01T16:24:44;19.90;82.40
913;DHT22;443;51.448;7.028;2023-08-01T16:27:10;19.90;81.90
913;DHT22;443;51.448;7.028;2023-08-01T16:29:37;19.80;82.80
913;DHT22;443;51.448;7.028;2023-08-01T16:32:06;19.90;83.10
913;DHT22;443;51.448;7.028;2023-08-01T16:34:33;19.80;83.50